createdAt,value
2023-04-15T00:02:57.381Z,3.5
2023-04-15T00:33:17.577Z,3.1
2023-04-15T01:03:36.866Z,2.4
2023-04-15T01:33:55.738Z,2.6
2023-04-15T02:04:15.116Z,2.5
2023-04-15T02:34:32.569Z,3.3
2023-04-15T03:04:49.351Z,2.9
2023-04-15T03:35:06.900Z,2.9
2023-04-15T04:05:26.008Z,3.1
2023-04-15T04:35:43.592Z,2.7
2023-04-15T05:06:01.490Z,2.3
2023-04-15T05:36:21.981Z,2.3
2023-04-15T06:06:40.650Z,7.1
2023-04-15T06:37:01.545Z,3.2
2023-04-15T07:07:27.250Z,4.6
2023-04-15T07:38:09.836Z,2.3
2023-04-15T08:08:34.751Z,3.9
2023-04-15T08:38:55.973Z,3.8
2023-04-15T09:09:29.481Z,3.1
2023-04-15T09:39:39.887Z,1.7
2023-04-15T10:10:01.050Z,1.4
2023-04-15T10:40:19.835Z,1.4
2023-04-15T11:10:36.609Z,1.5
2023-04-15T11:40:57.505Z,1.1
2023-04-15T12:11:09.483Z,1.3
2023-04-15T12:41:26.684Z,1.2
2023-04-15T13:11:47.659Z,1.3
2023-04-15T13:41:59.373Z,1.5
2023-04-15T14:12:15.769Z,1.6
2023-04-15T14:42:30.746Z,1.9
2023-04-15T15:12:47.473Z,2.2
2023-04-15T15:43:01.718Z,2.6
2023-04-15T16:43:34.069Z,4.6
2023-04-15T17:13:53.680Z,4.1
2023-04-15T17:44:16.327Z,4.5
2023-04-15T18:14:34.995Z,4.1
2023-04-15T18:44:52.319Z,4.7
2023-04-15T19:15:09.967Z,4.6
2023-04-15T19:45:28.844Z,4.3
2023-04-15T20:15:47.525Z,4
2023-04-15T20:46:17.961Z,3.9
2023-04-15T21:16:32.143Z,4.3
2023-04-15T22:17:21.839Z,4.1
2023-04-15T22:47:40.970Z,5.1
2023-04-15T23:18:02.095Z,4.8
2023-04-15T23:48:20.201Z,5.2
